createdAt,value
2018-12-14T00:00:54.494Z,14.83
2018-12-14T00:03:22.909Z,13.83
2018-12-14T00:05:51.295Z,13.33
2018-12-14T00:08:19.878Z,14.70
2018-12-14T00:10:48.258Z,14.20
2018-12-14T00:13:16.656Z,14.93
2018-12-14T00:15:45.034Z,13.93
2018-12-14T00:18:13.420Z,13.50
2018-12-14T00:20:41.854Z,12.90
2018-12-14T00:23:10.259Z,13.77
2018-12-14T00:25:38.635Z,14.17
2018-12-14T00:28:07.052Z,13.67
2018-12-14T00:30:35.433Z,14.10
2018-12-14T00:33:03.821Z,13.90
2018-12-14T00:35:32.325Z,13.57
2018-12-14T00:38:00.736Z,14.37
2018-12-14T00:40:29.112Z,13.90
2018-12-14T00:42:57.521Z,14.07
2018-12-14T00:45:25.905Z,15.13
2018-12-14T00:47:54.312Z,14.93
2018-12-14T00:50:22.712Z,14.30
2018-12-14T00:52:51.113Z,14.07
2018-12-14T00:55:19.484Z,14.40
2018-12-14T00:57:47.871Z,14.90
2018-12-14T01:00:16.264Z,15.60
2018-12-14T01:02:44.677Z,14.53
2018-12-14T01:05:13.076Z,14.37
2018-12-14T01:07:41.466Z,15.17
2018-12-14T01:10:10.001Z,15.47
2018-12-14T01:12:38.513Z,14.37
2018-12-14T01:15:07.345Z,13.90
2018-12-14T01:17:35.714Z,14.07
2018-12-14T01:20:04.749Z,15.27
2018-12-14T01:22:33.144Z,14.53
2018-12-14T01:25:01.544Z,13.90
2018-12-14T01:27:29.940Z,13.77
2018-12-14T01:29:58.388Z,14.83
2018-12-14T01:32:26.788Z,13.93
2018-12-14T01:34:55.213Z,14.47
2018-12-14T01:37:23.585Z,14.50
2018-12-14T01:39:51.985Z,14.67
2018-12-14T01:42:20.393Z,14.80
2018-12-14T01:44:48.808Z,13.50
2018-12-14T01:47:17.192Z,14.57
2018-12-14T01:49:45.597Z,14.33
2018-12-14T01:52:13.985Z,14.47
2018-12-14T01:54:42.462Z,14.50
2018-12-14T01:57:10.901Z,14.43
2018-12-14T01:59:39.325Z,13.93
2018-12-14T02:02:07.713Z,14.23
2018-12-14T02:04:36.115Z,14.60
2018-12-14T02:07:04.545Z,14.47
2018-12-14T02:09:32.949Z,13.63
2018-12-14T02:12:01.412Z,14.43
2018-12-14T02:14:29.913Z,14.50
2018-12-14T02:16:58.333Z,15.17
2018-12-14T02:19:26.750Z,14.07
2018-12-14T02:21:55.272Z,13.13
2018-12-14T02:24:23.736Z,14.60
2018-12-14T02:26:52.132Z,14.27
2018-12-14T02:29:20.522Z,14.23
2018-12-14T02:31:48.932Z,13.37
2018-12-14T02:34:17.417Z,13.90
2018-12-14T02:36:45.824Z,13.93
2018-12-14T02:39:14.210Z,13.57
2018-12-14T02:41:42.642Z,13.63
2018-12-14T02:44:11.036Z,12.90
2018-12-14T02:46:39.429Z,13.20
2018-12-14T02:49:07.824Z,13.40
2018-12-14T02:51:36.228Z,13.63
2018-12-14T02:54:04.740Z,12.20
2018-12-14T02:56:33.176Z,13.23
2018-12-14T02:59:01.579Z,12.60
2018-12-14T03:01:29.993Z,12.77
2018-12-14T03:03:58.409Z,13.57
2018-12-14T03:06:26.836Z,13.57
2018-12-14T03:08:55.253Z,14.33
2018-12-14T03:11:23.656Z,13.83
2018-12-14T03:13:52.076Z,13.63
2018-12-14T03:16:20.482Z,14.47
2018-12-14T03:18:48.917Z,14.03
2018-12-14T03:21:17.325Z,12.43
2018-12-14T03:23:45.738Z,12.10
2018-12-14T03:26:14.252Z,14.03
2018-12-14T03:28:42.661Z,14.77
2018-12-14T03:31:11.049Z,14.50
2018-12-14T03:33:39.537Z,12.83
2018-12-14T03:36:07.935Z,12.67
2018-12-14T03:38:36.351Z,14.13
2018-12-14T03:41:04.762Z,14.83
2018-12-14T03:43:33.168Z,13.93
2018-12-14T03:46:01.558Z,13.53
2018-12-14T03:48:29.992Z,13.33
2018-12-14T03:50:58.976Z,13.77
2018-12-14T03:53:27.387Z,12.47
2018-12-14T03:55:55.782Z,12.47
2018-12-14T03:58:24.198Z,12.13
2018-12-14T04:00:52.700Z,12.60
2018-12-14T04:03:21.076Z,11.67
2018-12-14T04:05:49.585Z,12.00
2018-12-14T04:08:17.953Z,13.13
2018-12-14T04:10:46.385Z,13.23
2018-12-14T04:13:15.052Z,14.13
2018-12-14T04:15:44.600Z,12.83
2018-12-14T04:18:13.200Z,13.07
2018-12-14T04:20:41.627Z,12.53
2018-12-14T04:23:10.011Z,12.97
2018-12-14T04:25:38.425Z,12.50
2018-12-14T04:28:06.816Z,12.50
2018-12-14T04:30:35.223Z,12.70
2018-12-14T04:33:03.650Z,12.83
2018-12-14T04:35:32.247Z,12.90
2018-12-14T04:38:00.672Z,12.90
2018-12-14T04:40:29.073Z,12.70
2018-12-14T04:42:57.462Z,13.30
2018-12-14T04:45:25.870Z,12.80
2018-12-14T04:47:54.265Z,13.00
2018-12-14T04:50:22.685Z,12.53
2018-12-14T04:52:51.064Z,12.53
2018-12-14T04:55:19.469Z,12.67
2018-12-14T04:57:47.850Z,11.60
2018-12-14T05:00:16.247Z,12.17
2018-12-14T05:02:44.644Z,12.53
2018-12-14T05:05:13.029Z,12.03
2018-12-14T05:07:41.441Z,11.63
2018-12-14T05:10:10.058Z,12.57
2018-12-14T05:12:38.462Z,11.90
2018-12-14T05:15:07.681Z,11.90
2018-12-14T05:17:36.265Z,11.13
2018-12-14T05:20:04.950Z,11.30
2018-12-14T05:22:33.357Z,11.50
2018-12-14T05:25:01.742Z,11.63
2018-12-14T05:27:30.150Z,11.83
2018-12-14T05:29:58.845Z,12.23
2018-12-14T05:32:27.252Z,11.83
2018-12-14T05:34:55.620Z,11.93
2018-12-14T05:37:24.012Z,12.23
2018-12-14T05:39:52.393Z,11.93
2018-12-14T05:42:20.798Z,12.67
2018-12-14T05:44:49.181Z,12.70
2018-12-14T05:47:17.707Z,12.90
2018-12-14T05:49:46.085Z,12.40
2018-12-14T05:52:14.613Z,12.63
2018-12-14T05:54:42.999Z,12.10
2018-12-14T05:57:11.678Z,12.87
2018-12-14T05:59:40.085Z,13.33
2018-12-14T06:02:08.478Z,12.27
2018-12-14T06:04:36.881Z,13.43
2018-12-14T06:07:05.256Z,12.77
2018-12-14T06:09:33.679Z,13.93
2018-12-14T06:12:02.765Z,13.53
2018-12-14T06:14:31.169Z,13.30
2018-12-14T06:16:59.664Z,12.93
2018-12-14T06:19:28.056Z,13.00
2018-12-14T06:21:56.530Z,11.73
2018-12-14T06:24:24.949Z,12.07
2018-12-14T06:26:53.336Z,12.93
2018-12-14T06:29:21.752Z,11.70
2018-12-14T06:31:50.124Z,12.43
2018-12-14T06:34:18.521Z,12.10
2018-12-14T06:36:46.919Z,11.70
2018-12-14T06:39:15.502Z,13.03
2018-12-14T06:41:44.199Z,12.63
2018-12-14T06:44:12.623Z,13.50
2018-12-14T06:46:41.047Z,11.63
2018-12-14T06:49:09.451Z,11.80
2018-12-14T06:51:37.869Z,12.10
2018-12-14T06:54:06.292Z,12.30
2018-12-14T06:56:34.681Z,12.83
2018-12-14T06:59:03.152Z,12.23
2018-12-14T07:01:31.644Z,11.67
2018-12-14T07:04:00.054Z,12.97
2018-12-14T07:06:28.444Z,12.73
2018-12-14T07:08:56.849Z,12.53
2018-12-14T07:11:25.265Z,13.43
2018-12-14T07:13:53.675Z,13.20
2018-12-14T07:16:22.056Z,13.23
2018-12-14T07:18:50.481Z,13.20
2018-12-14T07:21:18.888Z,12.93
2018-12-14T07:23:47.282Z,12.77
2018-12-14T07:26:15.688Z,12.50
2018-12-14T07:28:44.078Z,11.70
2018-12-14T07:31:12.514Z,13.00
2018-12-14T07:33:41.034Z,12.73
2018-12-14T07:36:09.445Z,12.87
2018-12-14T07:38:37.864Z,13.10
2018-12-14T07:41:06.248Z,13.20
2018-12-14T07:43:34.655Z,13.20
2018-12-14T07:46:03.163Z,13.03
2018-12-14T07:48:31.562Z,13.10
2018-12-14T07:51:00.328Z,13.53
2018-12-14T07:53:28.712Z,13.77
2018-12-14T07:55:57.149Z,13.43
2018-12-14T07:58:25.561Z,12.43
2018-12-14T08:00:53.985Z,13.67
2018-12-14T08:03:22.375Z,12.80
2018-12-14T08:05:50.762Z,13.37
2018-12-14T08:08:19.212Z,12.80
2018-12-14T08:10:47.595Z,13.13
2018-12-14T08:13:15.983Z,12.57
2018-12-14T08:15:44.449Z,12.83
2018-12-14T08:18:12.876Z,12.17
2018-12-14T08:20:41.285Z,13.57
2018-12-14T08:23:09.716Z,13.77
2018-12-14T08:25:38.112Z,13.13
2018-12-14T08:28:06.500Z,13.27
2018-12-14T08:30:34.896Z,13.30
2018-12-14T08:33:03.271Z,12.73
2018-12-14T08:35:31.727Z,13.10
2018-12-14T08:38:00.148Z,13.07
2018-12-14T08:40:28.533Z,11.60
2018-12-14T08:42:56.968Z,12.27
2018-12-14T08:45:25.339Z,12.13
2018-12-14T08:47:53.977Z,12.50
2018-12-14T08:50:22.355Z,12.20
2018-12-14T08:52:50.727Z,13.33
2018-12-14T08:55:19.173Z,13.83
2018-12-14T08:57:47.557Z,12.60
2018-12-14T09:00:15.954Z,12.20
2018-12-14T09:02:44.356Z,12.13
2018-12-14T09:05:12.751Z,12.00
2018-12-14T09:07:41.177Z,12.20
2018-12-14T09:10:09.716Z,13.10
2018-12-14T09:12:38.121Z,12.57
2018-12-14T09:15:06.757Z,12.40
2018-12-14T09:17:35.148Z,12.53
2018-12-14T09:20:03.710Z,11.53
2018-12-14T09:22:32.112Z,12.77
2018-12-14T09:25:00.497Z,12.30
2018-12-14T09:27:28.899Z,12.20
2018-12-14T09:29:57.283Z,12.50
2018-12-14T09:32:25.701Z,12.27
2018-12-14T09:34:54.252Z,12.33
2018-12-14T09:37:22.657Z,11.53
2018-12-14T09:39:51.089Z,12.70
2018-12-14T09:42:19.501Z,12.23
2018-12-14T09:44:47.900Z,11.97
2018-12-14T09:47:16.309Z,12.23
2018-12-14T09:49:44.698Z,12.37
2018-12-14T09:52:13.110Z,12.47
2018-12-14T09:54:41.498Z,11.93
2018-12-14T09:57:10.043Z,12.23
2018-12-14T09:59:38.430Z,12.47
2018-12-14T10:02:06.974Z,12.20
2018-12-14T10:04:35.359Z,12.40
2018-12-14T10:07:03.798Z,12.93
2018-12-14T10:09:32.208Z,12.23
2018-12-14T10:12:00.615Z,12.53
2018-12-14T10:14:29.003Z,12.07
2018-12-14T10:16:57.421Z,11.60
2018-12-14T10:19:25.806Z,11.47
2018-12-14T10:21:54.308Z,12.20
2018-12-14T10:24:22.716Z,11.60
2018-12-14T10:26:51.101Z,11.10
2018-12-14T10:29:19.513Z,11.60
2018-12-14T10:31:47.896Z,10.77
2018-12-14T10:34:16.299Z,12.17
2018-12-14T10:36:44.721Z,11.57
2018-12-14T10:39:13.133Z,11.80
2018-12-14T10:41:41.506Z,11.37
2018-12-14T10:44:09.925Z,11.40
2018-12-14T10:46:38.324Z,12.60
2018-12-14T10:49:06.828Z,11.27
2018-12-14T10:51:35.489Z,10.97
2018-12-14T10:54:03.922Z,11.17
2018-12-14T10:56:32.299Z,12.03
2018-12-14T10:59:00.746Z,10.80
2018-12-14T11:01:34.601Z,11.73
2018-12-14T11:04:03.014Z,12.17
2018-12-14T11:06:31.394Z,11.87
2018-12-14T11:08:59.801Z,12.10
2018-12-14T11:11:28.192Z,11.13
2018-12-14T11:13:56.621Z,10.60
2018-12-14T11:16:25.000Z,11.93
2018-12-14T11:18:53.413Z,11.10
2018-12-14T11:21:21.833Z,11.50
2018-12-14T11:23:50.250Z,11.97
2018-12-14T11:26:18.658Z,11.27
2018-12-14T11:28:47.045Z,11.23
2018-12-14T11:31:15.456Z,10.70
2018-12-14T11:33:43.856Z,10.70
2018-12-14T11:36:12.317Z,10.53
2018-12-14T11:38:40.705Z,10.23
2018-12-14T11:41:09.152Z,11.60
2018-12-14T11:43:37.558Z,11.30
2018-12-14T11:46:05.957Z,11.57
2018-12-14T11:48:34.356Z,11.93
2018-12-14T11:51:02.785Z,10.23
2018-12-14T11:53:31.186Z,11.10
2018-12-14T11:55:59.625Z,10.87
2018-12-14T11:58:28.044Z,10.80
2018-12-14T12:00:56.464Z,11.80
2018-12-14T12:03:24.950Z,12.20
2018-12-14T12:05:53.381Z,10.73
2018-12-14T12:08:21.794Z,10.90
2018-12-14T12:10:50.188Z,11.77
2018-12-14T12:13:18.605Z,10.40
2018-12-14T12:15:46.984Z,11.17
2018-12-14T12:18:15.396Z,11.40
2018-12-14T12:20:43.817Z,11.47
2018-12-14T12:23:12.240Z,11.60
2018-12-14T12:25:40.653Z,11.50
2018-12-14T12:28:09.080Z,10.60
2018-12-14T12:30:37.500Z,10.73
2018-12-14T12:33:05.906Z,10.50
2018-12-14T12:35:34.335Z,11.10
2018-12-14T12:38:02.725Z,10.97
2018-12-14T12:40:31.129Z,11.83
2018-12-14T12:42:59.521Z,10.60
2018-12-14T12:45:27.933Z,10.97
2018-12-14T12:47:56.518Z,10.30
2018-12-14T12:50:24.987Z,10.50
2018-12-14T12:52:53.376Z,10.87
2018-12-14T12:55:21.780Z,10.47
2018-12-14T12:57:50.300Z,10.47
2018-12-14T13:00:18.719Z,10.47
2018-12-14T13:02:47.126Z,10.93
2018-12-14T13:05:15.539Z,11.10
2018-12-14T13:07:44.053Z,10.77
2018-12-14T13:10:12.625Z,9.83
2018-12-14T13:12:41.020Z,9.87
2018-12-14T13:15:09.593Z,10.23
2018-12-14T13:17:38.166Z,11.10
2018-12-14T13:20:06.677Z,10.97
2018-12-14T13:22:35.087Z,9.83
2018-12-14T13:25:03.630Z,10.53
2018-12-14T13:27:32.064Z,10.87
2018-12-14T13:30:00.551Z,10.67
2018-12-14T13:32:28.944Z,10.77
2018-12-14T13:34:57.357Z,10.20
2018-12-14T13:37:25.782Z,10.27
2018-12-14T13:39:54.217Z,10.20
2018-12-14T13:42:22.649Z,10.50
2018-12-14T13:44:51.396Z,11.07
2018-12-14T13:47:19.947Z,10.80
2018-12-14T13:49:48.376Z,11.10
2018-12-14T13:52:16.792Z,11.93
2018-12-14T13:54:45.190Z,10.67
2018-12-14T13:57:13.651Z,11.07
2018-12-14T13:59:42.151Z,10.73
2018-12-14T14:02:10.557Z,11.53
2018-12-14T14:04:38.980Z,10.67
2018-12-14T14:07:07.384Z,11.03
2018-12-14T14:09:35.807Z,11.13
2018-12-14T14:12:04.333Z,10.80
2018-12-14T14:14:32.792Z,10.20
2018-12-14T14:17:01.326Z,12.13
2018-12-14T14:19:29.975Z,10.67
2018-12-14T14:21:58.381Z,10.90
2018-12-14T14:24:26.804Z,10.70
2018-12-14T14:26:55.213Z,9.90
2018-12-14T14:29:23.662Z,9.80
2018-12-14T14:31:52.077Z,10.20
2018-12-14T14:34:20.493Z,9.80
2018-12-14T14:36:48.921Z,9.97
2018-12-14T14:39:17.304Z,9.73
2018-12-14T14:41:45.728Z,9.90
2018-12-14T14:44:14.152Z,9.07
2018-12-14T14:46:42.589Z,9.33
2018-12-14T14:49:11.001Z,10.93
2018-12-14T14:51:40.040Z,9.77
2018-12-14T14:54:08.425Z,9.33
2018-12-14T14:56:36.849Z,10.10
2018-12-14T14:59:05.271Z,11.13
2018-12-14T15:01:33.682Z,10.57
2018-12-14T15:04:02.305Z,9.80
2018-12-14T15:06:30.724Z,9.83
2018-12-14T15:08:59.364Z,10.10
2018-12-14T15:11:27.904Z,10.97
2018-12-14T15:13:56.469Z,9.60
2018-12-14T15:16:24.893Z,9.37
2018-12-14T15:18:53.308Z,10.13
2018-12-14T15:21:21.737Z,8.87
2018-12-14T15:23:50.283Z,10.13
2018-12-14T15:26:18.969Z,9.83
2018-12-14T15:28:47.433Z,9.60
2018-12-14T15:31:16.267Z,9.90
2018-12-14T15:33:44.795Z,9.37
2018-12-14T15:36:13.466Z,9.90
2018-12-14T15:38:42.553Z,10.60
2018-12-14T15:41:11.021Z,9.90
2018-12-14T15:43:39.469Z,10.23
2018-12-14T15:46:08.528Z,9.47
2018-12-14T15:48:37.028Z,10.57
2018-12-14T15:51:05.478Z,10.73
2018-12-14T15:53:33.891Z,10.70
2018-12-14T15:56:02.288Z,11.47
2018-12-14T15:58:30.740Z,11.27
2018-12-14T16:00:59.168Z,11.37
2018-12-14T16:03:27.547Z,11.50
2018-12-14T16:05:56.080Z,11.23
2018-12-14T16:08:24.489Z,11.70
2018-12-14T16:10:52.929Z,11.17
2018-12-14T16:13:21.425Z,10.57
2018-12-14T16:15:49.919Z,11.67
2018-12-14T16:18:18.535Z,10.90
2018-12-14T16:20:47.117Z,10.90
2018-12-14T16:23:15.521Z,9.70
2018-12-14T16:25:43.962Z,9.87
2018-12-14T16:28:12.479Z,10.57
2018-12-14T16:30:40.941Z,10.50
2018-12-14T16:33:09.390Z,10.27
2018-12-14T16:35:37.845Z,10.50
2018-12-14T16:38:06.256Z,11.07
2018-12-14T16:40:34.786Z,11.20
2018-12-14T16:43:03.184Z,11.47
2018-12-14T16:45:31.655Z,12.40
2018-12-14T16:48:00.522Z,14.00
2018-12-14T16:50:29.033Z,13.20
2018-12-14T16:52:57.605Z,12.53
2018-12-14T16:55:26.041Z,12.90
2018-12-14T16:57:54.471Z,11.93
2018-12-14T17:00:23.356Z,11.43
2018-12-14T17:02:51.804Z,12.00
2018-12-14T17:05:20.245Z,11.13
2018-12-14T17:07:48.684Z,11.07
2018-12-14T17:10:17.401Z,10.87
2018-12-14T17:12:46.041Z,11.03
2018-12-14T17:15:14.520Z,10.93
2018-12-14T17:17:42.945Z,10.43
2018-12-14T17:20:11.421Z,10.43
2018-12-14T17:22:39.877Z,10.83
2018-12-14T17:25:08.560Z,11.63
2018-12-14T17:27:37.030Z,11.63
2018-12-14T17:30:06.524Z,11.10
2018-12-14T17:32:34.965Z,11.23
2018-12-14T17:35:03.488Z,11.03
2018-12-14T17:37:31.965Z,10.50
2018-12-14T17:40:00.387Z,11.60
2018-12-14T17:42:28.837Z,11.57
2018-12-14T17:44:57.222Z,11.70
2018-12-14T17:47:25.604Z,11.77
2018-12-14T17:49:54.116Z,11.37
2018-12-14T17:52:22.529Z,11.87
2018-12-14T17:54:50.957Z,12.23
2018-12-14T17:57:19.362Z,12.57
2018-12-14T17:59:47.787Z,11.87
2018-12-14T18:02:16.224Z,11.40
2018-12-14T18:04:44.624Z,12.47
2018-12-14T18:07:13.021Z,11.07
2018-12-14T18:09:41.460Z,11.00
2018-12-14T18:12:10.040Z,11.00
2018-12-14T18:14:38.505Z,11.10
2018-12-14T18:17:06.933Z,11.13
2018-12-14T18:19:35.344Z,10.57
2018-12-14T18:22:03.753Z,11.90
2018-12-14T18:24:32.150Z,12.33
2018-12-14T18:27:00.565Z,11.53
2018-12-14T18:29:29.121Z,11.87
2018-12-14T18:31:57.547Z,12.33
2018-12-14T18:34:25.970Z,12.43
2018-12-14T18:36:54.398Z,12.47
2018-12-14T18:39:22.829Z,11.03
2018-12-14T18:41:51.251Z,11.67
2018-12-14T18:44:19.683Z,11.73
2018-12-14T18:46:48.466Z,11.43
2018-12-14T18:49:16.846Z,12.43
2018-12-14T18:51:45.260Z,12.03
2018-12-14T18:54:13.672Z,11.43
2018-12-14T18:56:42.109Z,12.10
2018-12-14T18:59:10.709Z,12.13
2018-12-14T19:01:39.240Z,11.57
2018-12-14T19:04:07.676Z,12.10
2018-12-14T19:06:36.109Z,11.90
2018-12-14T19:09:06.456Z,12.23
2018-12-14T19:11:34.869Z,12.33
2018-12-14T19:14:03.305Z,12.47
2018-12-14T19:16:31.709Z,13.13
2018-12-14T19:19:00.084Z,13.20
2018-12-14T19:21:28.520Z,13.17
2018-12-14T19:23:57.524Z,13.20
2018-12-14T19:26:25.951Z,13.93
2018-12-14T19:28:54.377Z,11.77
2018-12-14T19:31:22.926Z,12.63
2018-12-14T19:33:51.335Z,12.30
2018-12-14T19:36:19.809Z,12.00
2018-12-14T19:38:48.201Z,12.93
2018-12-14T19:41:16.679Z,11.87
2018-12-14T19:43:45.092Z,13.17
2018-12-14T19:46:13.474Z,12.43
2018-12-14T19:48:41.888Z,13.37
2018-12-14T19:51:10.276Z,11.93
2018-12-14T19:53:38.670Z,12.67
2018-12-14T19:56:07.076Z,12.23
2018-12-14T19:58:35.504Z,13.50
2018-12-14T20:01:03.917Z,14.20
2018-12-14T20:03:32.344Z,13.93
2018-12-14T20:06:00.728Z,14.10
2018-12-14T20:08:29.141Z,13.23
2018-12-14T20:10:57.535Z,12.90
2018-12-14T20:13:25.951Z,12.50
2018-12-14T20:15:57.597Z,11.33
2018-12-14T20:18:24.789Z,13.17
2018-12-14T20:20:53.250Z,9.53
2018-12-14T20:23:21.641Z,11.97
2018-12-14T20:25:50.048Z,11.90
2018-12-14T20:28:18.432Z,12.77
2018-12-14T20:30:46.850Z,11.90
2018-12-14T20:33:15.354Z,12.03
2018-12-14T20:35:43.728Z,13.03
2018-12-14T20:38:12.376Z,12.80
2018-12-14T20:40:40.760Z,12.77
2018-12-14T20:43:09.188Z,12.27
2018-12-14T20:45:37.577Z,12.80
2018-12-14T20:48:06.043Z,12.57
2018-12-14T20:50:34.462Z,12.03
2018-12-14T20:53:02.866Z,11.67
2018-12-14T20:55:31.250Z,12.27
2018-12-14T20:57:59.674Z,11.67
2018-12-14T21:00:28.068Z,11.93
2018-12-14T21:02:56.472Z,12.00
2018-12-14T21:05:24.854Z,11.30
2018-12-14T21:07:53.296Z,9.97
2018-12-14T21:10:21.681Z,10.53
2018-12-14T21:12:50.093Z,10.80
2018-12-14T21:15:18.511Z,11.17
2018-12-14T21:17:46.939Z,10.83
2018-12-14T21:20:15.327Z,10.40
2018-12-14T21:22:43.732Z,10.83
2018-12-14T21:25:12.145Z,10.73
2018-12-14T21:27:40.526Z,11.73
2018-12-14T21:30:10.092Z,11.90
2018-12-14T21:32:38.477Z,11.70
2018-12-14T21:35:07.139Z,11.80
2018-12-14T21:37:35.648Z,10.97
2018-12-14T21:40:04.496Z,10.30
2018-12-14T21:42:34.277Z,10.40
2018-12-14T21:45:02.870Z,10.83
2018-12-14T21:47:31.276Z,10.53
2018-12-14T21:49:59.653Z,10.97
2018-12-14T21:52:28.098Z,11.33
2018-12-14T21:54:56.480Z,11.07
2018-12-14T21:57:24.925Z,10.37
2018-12-14T21:59:53.340Z,10.77
2018-12-14T22:02:21.784Z,11.60
2018-12-14T22:04:50.347Z,10.47
2018-12-14T22:07:18.731Z,11.03
2018-12-14T22:09:48.319Z,11.43
2018-12-14T22:12:16.937Z,10.97
2018-12-14T22:14:45.337Z,11.57
2018-12-14T22:17:13.756Z,11.10
2018-12-14T22:19:42.168Z,11.00
2018-12-14T22:22:10.576Z,11.80
2018-12-14T22:24:39.005Z,11.00
2018-12-14T22:27:07.489Z,11.07
2018-12-14T22:29:35.892Z,11.33
2018-12-14T22:32:04.290Z,10.80
2018-12-14T22:34:32.700Z,11.70
2018-12-14T22:37:01.079Z,11.87
2018-12-14T22:39:29.789Z,11.60
2018-12-14T22:41:59.103Z,10.90
2018-12-14T22:44:27.480Z,10.87
2018-12-14T22:46:55.905Z,11.80
2018-12-14T22:49:24.310Z,10.67
2018-12-14T22:51:52.715Z,11.83
2018-12-14T22:54:21.137Z,12.93
2018-12-14T22:56:49.512Z,12.07
2018-12-14T22:59:17.932Z,11.63
2018-12-14T23:01:46.386Z,12.17
2018-12-14T23:04:21.578Z,12.00
2018-12-14T23:06:49.964Z,12.60
2018-12-14T23:09:18.384Z,12.83
2018-12-14T23:11:46.781Z,11.53
2018-12-14T23:14:15.166Z,11.83
2018-12-14T23:16:43.590Z,12.63
2018-12-14T23:19:11.962Z,13.70
2018-12-14T23:21:40.408Z,12.67
2018-12-14T23:24:08.785Z,12.37
2018-12-14T23:26:37.216Z,12.83
2018-12-14T23:29:05.620Z,13.17
2018-12-14T23:31:34.013Z,12.77
2018-12-14T23:34:02.413Z,12.07
2018-12-14T23:36:30.781Z,11.63
2018-12-14T23:38:59.185Z,10.17
2018-12-14T23:41:27.597Z,11.37
2018-12-14T23:43:56.006Z,11.43
2018-12-14T23:46:24.400Z,10.57
2018-12-14T23:48:52.796Z,10.20
2018-12-14T23:51:21.196Z,11.00
2018-12-14T23:53:49.608Z,11.03
2018-12-14T23:56:18.123Z,11.17
2018-12-14T23:58:46.525Z,11.37
